Terminal Aerodrome Forecast
Issued by NWS Jackson, KY

Home | Current Version | Previous Version | Text Only | Print | Product List | Glossary On
Versions: 1 2 3 4 5 6 7 8 9 10 11 12 13 14 15 16 17 18 19
000
FTUS43 KJKL 291400 AAA
TAFLOZ
TAF AMD
KLOZ 291404Z 2914/3012 36006KT 2SM BR VCSH OVC003
     FM291600 VRB03KT 6SM BR OVC009
     FM291800 VRB05KT P6SM OVC015=

USA.gov is the U.S. government's official web portal to all federal, state and local government web resources and services.